Galloway, Arkansas
Current Conditions -  °F | °C
As of 10:53 AM on Friday 28 Nov 2014 (Local Time) from KLIT Reporting Station
Clear Clear  
Wind Chill: 50°   Ceiling: Unl
Heat Index: 50°   Visibility: 10mi
Dew Point: 29°   Wind: 9mph
Humidity: 44%   Direction: 180°S
Pressure: 30.32"   Gusts: NA
Location:  34.757°N, 92.1411°W
Report Text: KLIT 281653Z 18008KT 10SM CLR 10/M02 A3032 RMK AO2 SLP270 T01001017
Loading
Personal Weather Stations






























Interactive Weather Map New forecast layout! Learn more

10-Day Weather Forecast

Advertisements
Track Severe Weather on mobile